sensor_id;sensor_type;location;lat;lon;timestamp;temperature;humidity
53800;DHT22;39708;53.210;6.948;2022-07-06T00:01:31;12.20;99.90
53800;DHT22;39708;53.210;6.948;2022-07-06T00:03:56;12.40;99.90
53800;DHT22;39708;53.210;6.948;2022-07-06T00:06:23;13.60;99.90
53800;DHT22;39708;53.210;6.948;2022-07-06T00:08:48;12.80;99.90
53800;DHT22;39708;53.210;6.948;2022-07-06T00:11:14;13.00;99.90
53800;DHT22;39708;53.210;6.948;2022-07-06T00:13:40;13.30;99.90
53800;DHT22;39708;53.210;6.948;2022-07-06T00:16:06;13.50;99.90
53800;DHT22;39708;53.210;6.948;2022-07-06T00:18:31;13.10;99.90
53800;DHT22;39708;53.210;6.948;2022-07-06T00:20:57;13.10;99.90
53800;DHT22;39708;53.210;6.948;2022-07-06T00:23:23;13.10;99.90
53800;DHT22;39708;53.210;6.948;2022-07-06T00:25:48;13.10;99.90
53800;DHT22;39708;53.210;6.948;2022-07-06T00:28:14;13.10;99.90
53800;DHT22;39708;53.210;6.948;2022-07-06T00:30:40;13.10;99.90
53800;DHT22;39708;53.210;6.948;2022-07-06T00:33:06;13.30;99.90
53800;DHT22;39708;53.210;6.948;2022-07-06T00:35:32;13.50;99.90
53800;DHT22;39708;53.210;6.948;2022-07-06T00:37:58;13.20;99.90
53800;DHT22;39708;53.210;6.948;2022-07-06T00:40:23;13.20;99.90
53800;DHT22;39708;53.210;6.948;2022-07-06T00:42:49;13.30;99.90
53800;DHT22;39708;53.210;6.948;2022-07-06T00:45:16;13.30;99.90
53800;DHT22;39708;53.210;6.948;2022-07-06T00:47:42;13.60;99.90
53800;DHT22;39708;53.210;6.948;2022-07-06T00:50:10;13.30;99.90
53800;DHT22;39708;53.210;6.948;2022-07-06T00:52:43;13.30;99.90
53800;DHT22;39708;53.210;6.948;2022-07-06T00:55:10;13.30;99.90
53800;DHT22;39708;53.210;6.948;2022-07-06T00:57:36;13.90;99.90
53800;DHT22;39708;53.210;6.948;2022-07-06T01:00:04;13.40;99.90
53800;DHT22;39708;53.210;6.948;2022-07-06T01:02:31;13.30;99.90
53800;DHT22;39708;53.210;6.948;2022-07-06T01:04:57;13.30;99.90
53800;DHT22;39708;53.210;6.948;2022-07-06T01:07:23;13.40;99.90
53800;DHT22;39708;53.210;6.948;2022-07-06T01:09:49;13.60;99.90
53800;DHT22;39708;53.210;6.948;2022-07-06T01:12:15;13.30;99.90
53800;DHT22;39708;53.210;6.948;2022-07-06T01:14:42;13.20;99.90
53800;DHT22;39708;53.210;6.948;2022-07-06T01:17:08;13.30;99.90
53800;DHT22;39708;53.210;6.948;2022-07-06T01:19:34;13.20;99.90
53800;DHT22;39708;53.210;6.948;2022-07-06T01:21:59;13.20;99.90
53800;DHT22;39708;53.210;6.948;2022-07-06T01:24:26;13.40;99.90
53800;DHT22;39708;53.210;6.948;2022-07-06T01:26:51;13.20;99.90
53800;DHT22;39708;53.210;6.948;2022-07-06T01:29:17;13.20;99.90
53800;DHT22;39708;53.210;6.948;2022-07-06T01:31:48;13.20;99.90
53800;DHT22;39708;53.210;6.948;2022-07-06T01:34:15;13.40;99.90
53800;DHT22;39708;53.210;6.948;2022-07-06T01:36:41;13.10;99.90
53800;DHT22;39708;53.210;6.948;2022-07-06T01:39:08;13.10;99.90
53800;DHT22;39708;53.210;6.948;2022-07-06T01:41:34;13.10;99.90
53800;DHT22;39708;53.210;6.948;2022-07-06T01:43:59;13.10;99.90
53800;DHT22;39708;53.210;6.948;2022-07-06T01:46:25;13.20;99.90
53800;DHT22;39708;53.210;6.948;2022-07-06T01:48:51;13.10;99.90
53800;DHT22;39708;53.210;6.948;2022-07-06T01:51:16;13.10;99.90
53800;DHT22;39708;53.210;6.948;2022-07-06T01:53:42;13.50;99.90
53800;DHT22;39708;53.210;6.948;2022-07-06T01:56:08;13.10;99.90
53800;DHT22;39708;53.210;6.948;2022-07-06T01:58:34;13.00;99.90
53800;DHT22;39708;53.210;6.948;2022-07-06T02:01:01;13.10;99.90
53800;DHT22;39708;53.210;6.948;2022-07-06T02:03:31;13.00;99.90
53800;DHT22;39708;53.210;6.948;2022-07-06T02:05:57;13.20;99.90
53800;DHT22;39708;53.210;6.948;2022-07-06T02:08:22;13.00;99.90
53800;DHT22;39708;53.210;6.948;2022-07-06T02:10:48;13.10;99.90
53800;DHT22;39708;53.210;6.948;2022-07-06T02:13:14;13.60;99.90
53800;DHT22;39708;53.210;6.948;2022-07-06T02:15:39;13.10;99.90
53800;DHT22;39708;53.210;6.948;2022-07-06T02:18:05;13.10;99.90
53800;DHT22;39708;53.210;6.948;2022-07-06T02:20:31;13.90;99.90
53800;DHT22;39708;53.210;6.948;2022-07-06T02:22:56;13.10;99.90
53800;DHT22;39708;53.210;6.948;2022-07-06T02:25:22;13.70;99.90
53800;DHT22;39708;53.210;6.948;2022-07-06T02:27:48;13.10;99.90
53800;DHT22;39708;53.210;6.948;2022-07-06T02:30:13;13.10;99.90
53800;DHT22;39708;53.210;6.948;2022-07-06T02:32:39;13.10;99.90
53800;DHT22;39708;53.210;6.948;2022-07-06T02:35:05;13.10;99.90
53800;DHT22;39708;53.210;6.948;2022-07-06T02:37:30;13.10;99.90
53800;DHT22;39708;53.210;6.948;2022-07-06T02:39:56;14.30;99.90
53800;DHT22;39708;53.210;6.948;2022-07-06T02:42:22;14.00;99.90
53800;DHT22;39708;53.210;6.948;2022-07-06T02:44:47;13.20;99.90
53800;DHT22;39708;53.210;6.948;2022-07-06T02:47:13;13.20;99.90
53800;DHT22;39708;53.210;6.948;2022-07-06T02:49:38;13.40;99.90
53800;DHT22;39708;53.210;6.948;2022-07-06T02:52:04;13.50;99.90
53800;DHT22;39708;53.210;6.948;2022-07-06T02:54:30;13.10;99.90
53800;DHT22;39708;53.210;6.948;2022-07-06T02:56:55;13.40;99.90
53800;DHT22;39708;53.210;6.948;2022-07-06T02:59:21;13.00;99.90
53800;DHT22;39708;53.210;6.948;2022-07-06T03:01:46;13.00;99.90
53800;DHT22;39708;53.210;6.948;2022-07-06T03:04:12;12.90;99.90
53800;DHT22;39708;53.210;6.948;2022-07-06T03:06:37;12.80;99.90
53800;DHT22;39708;53.210;6.948;2022-07-06T03:09:03;12.90;99.90
53800;DHT22;39708;53.210;6.948;2022-07-06T03:11:29;12.70;99.90
53800;DHT22;39708;53.210;6.948;2022-07-06T03:13:55;13.20;99.90
53800;DHT22;39708;53.210;6.948;2022-07-06T03:16:20;12.60;99.90
53800;DHT22;39708;53.210;6.948;2022-07-06T03:18:46;12.70;99.90
53800;DHT22;39708;53.210;6.948;2022-07-06T03:21:11;12.50;99.90
53800;DHT22;39708;53.210;6.948;2022-07-06T03:23:37;12.40;99.90
53800;DHT22;39708;53.210;6.948;2022-07-06T03:26:03;12.40;99.90
53800;DHT22;39708;53.210;6.948;2022-07-06T03:28:28;12.30;99.90
53800;DHT22;39708;53.210;6.948;2022-07-06T03:30:54;12.30;99.90
53800;DHT22;39708;53.210;6.948;2022-07-06T03:33:20;12.20;99.90
53800;DHT22;39708;53.210;6.948;2022-07-06T03:35:45;12.10;99.90
53800;DHT22;39708;53.210;6.948;2022-07-06T03:38:11;12.10;99.90
53800;DHT22;39708;53.210;6.948;2022-07-06T03:40:37;12.00;99.90
53800;DHT22;39708;53.210;6.948;2022-07-06T03:43:02;12.00;99.90
53800;DHT22;39708;53.210;6.948;2022-07-06T03:45:28;11.90;99.90
53800;DHT22;39708;53.210;6.948;2022-07-06T03:47:54;11.90;99.90
53800;DHT22;39708;53.210;6.948;2022-07-06T03:50:19;11.90;99.90
53800;DHT22;39708;53.210;6.948;2022-07-06T03:52:45;11.80;99.90
53800;DHT22;39708;53.210;6.948;2022-07-06T03:55:11;11.80;99.90
53800;DHT22;39708;53.210;6.948;2022-07-06T03:57:40;11.70;99.90
53800;DHT22;39708;53.210;6.948;2022-07-06T04:00:07;11.90;99.90
53800;DHT22;39708;53.210;6.948;2022-07-06T04:02:32;11.60;99.90
53800;DHT22;39708;53.210;6.948;2022-07-06T04:04:58;11.50;99.90
53800;DHT22;39708;53.210;6.948;2022-07-06T04:07:24;11.50;99.90
53800;DHT22;39708;53.210;6.948;2022-07-06T04:09:50;11.50;99.90
53800;DHT22;39708;53.210;6.948;2022-07-06T04:12:16;12.20;99.90
53800;DHT22;39708;53.210;6.948;2022-07-06T04:14:42;11.50;99.90
53800;DHT22;39708;53.210;6.948;2022-07-06T04:17:08;11.60;99.90
53800;DHT22;39708;53.210;6.948;2022-07-06T04:19:52;11.60;99.90
53800;DHT22;39708;53.210;6.948;2022-07-06T04:22:17;11.70;99.90
53800;DHT22;39708;53.210;6.948;2022-07-06T04:24:43;11.60;99.90
53800;DHT22;39708;53.210;6.948;2022-07-06T04:27:08;11.60;99.90
53800;DHT22;39708;53.210;6.948;2022-07-06T04:29:34;11.60;99.90
53800;DHT22;39708;53.210;6.948;2022-07-06T04:31:59;11.60;99.90
53800;DHT22;39708;53.210;6.948;2022-07-06T04:34:25;11.80;99.90
53800;DHT22;39708;53.210;6.948;2022-07-06T04:36:51;11.60;99.90
53800;DHT22;39708;53.210;6.948;2022-07-06T04:39:16;11.70;99.90
53800;DHT22;39708;53.210;6.948;2022-07-06T04:41:42;11.70;99.90
53800;DHT22;39708;53.210;6.948;2022-07-06T04:44:07;11.80;99.90
53800;DHT22;39708;53.210;6.948;2022-07-06T04:46:33;11.70;99.90
53800;DHT22;39708;53.210;6.948;2022-07-06T04:48:58;13.10;99.90
53800;DHT22;39708;53.210;6.948;2022-07-06T04:51:24;12.00;99.90
53800;DHT22;39708;53.210;6.948;2022-07-06T04:53:50;12.70;99.90
53800;DHT22;39708;53.210;6.948;2022-07-06T04:56:15;12.30;99.90
53800;DHT22;39708;53.210;6.948;2022-07-06T04:58:41;12.30;99.90
53800;DHT22;39708;53.210;6.948;2022-07-06T05:01:06;12.40;99.90
53800;DHT22;39708;53.210;6.948;2022-07-06T05:03:33;12.50;99.90
53800;DHT22;39708;53.210;6.948;2022-07-06T05:06:00;12.60;99.90
53800;DHT22;39708;53.210;6.948;2022-07-06T05:08:26;12.60;99.90
53800;DHT22;39708;53.210;6.948;2022-07-06T05:10:51;12.70;99.90
53800;DHT22;39708;53.210;6.948;2022-07-06T05:13:18;12.70;99.90
53800;DHT22;39708;53.210;6.948;2022-07-06T05:15:43;12.80;99.90
53800;DHT22;39708;53.210;6.948;2022-07-06T05:18:09;12.80;99.90
53800;DHT22;39708;53.210;6.948;2022-07-06T05:20:34;12.80;99.90
53800;DHT22;39708;53.210;6.948;2022-07-06T05:23:00;13.30;99.90
53800;DHT22;39708;53.210;6.948;2022-07-06T05:25:26;12.90;99.90
53800;DHT22;39708;53.210;6.948;2022-07-06T05:27:51;13.30;99.90
53800;DHT22;39708;53.210;6.948;2022-07-06T05:30:17;13.00;99.90
53800;DHT22;39708;53.210;6.948;2022-07-06T05:32:42;13.00;99.90
53800;DHT22;39708;53.210;6.948;2022-07-06T05:35:08;13.00;99.90
53800;DHT22;39708;53.210;6.948;2022-07-06T05:37:34;13.10;99.90
53800;DHT22;39708;53.210;6.948;2022-07-06T05:39:59;13.10;99.90
53800;DHT22;39708;53.210;6.948;2022-07-06T05:42:25;13.10;99.90
53800;DHT22;39708;53.210;6.948;2022-07-06T05:44:55;13.20;99.90
53800;DHT22;39708;53.210;6.948;2022-07-06T05:47:21;13.20;99.90
53800;DHT22;39708;53.210;6.948;2022-07-06T05:50:06;13.30;99.90
53800;DHT22;39708;53.210;6.948;2022-07-06T05:52:39;13.40;99.90
53800;DHT22;39708;53.210;6.948;2022-07-06T05:55:05;13.90;99.90
53800;DHT22;39708;53.210;6.948;2022-07-06T05:57:31;13.70;99.90
53800;DHT22;39708;53.210;6.948;2022-07-06T05:59:57;13.80;99.90
53800;DHT22;39708;53.210;6.948;2022-07-06T06:02:22;13.90;99.90
53800;DHT22;39708;53.210;6.948;2022-07-06T06:04:48;14.20;99.90
53800;DHT22;39708;53.210;6.948;2022-07-06T06:07:14;14.20;99.90
53800;DHT22;39708;53.210;6.948;2022-07-06T06:09:39;14.30;99.90
53800;DHT22;39708;53.210;6.948;2022-07-06T06:12:05;14.70;99.90
53800;DHT22;39708;53.210;6.948;2022-07-06T06:14:31;14.60;99.90
53800;DHT22;39708;53.210;6.948;2022-07-06T06:16:57;14.70;99.90
53800;DHT22;39708;53.210;6.948;2022-07-06T06:19:23;15.00;99.90
53800;DHT22;39708;53.210;6.948;2022-07-06T06:21:48;15.00;99.90
53800;DHT22;39708;53.210;6.948;2022-07-06T06:24:14;15.20;99.90
53800;DHT22;39708;53.210;6.948;2022-07-06T06:26:40;15.20;99.90
53800;DHT22;39708;53.210;6.948;2022-07-06T06:29:05;15.30;99.90
53800;DHT22;39708;53.210;6.948;2022-07-06T06:31:31;15.30;99.90
53800;DHT22;39708;53.210;6.948;2022-07-06T06:33:57;15.20;99.90
53800;DHT22;39708;53.210;6.948;2022-07-06T06:36:22;15.10;99.90
53800;DHT22;39708;53.210;6.948;2022-07-06T06:38:48;15.00;99.90
53800;DHT22;39708;53.210;6.948;2022-07-06T06:41:13;15.00;99.90
53800;DHT22;39708;53.210;6.948;2022-07-06T06:43:39;15.20;99.90
53800;DHT22;39708;53.210;6.948;2022-07-06T06:46:05;14.80;99.90
53800;DHT22;39708;53.210;6.948;2022-07-06T06:48:31;14.70;99.90
53800;DHT22;39708;53.210;6.948;2022-07-06T06:50:57;14.70;99.90
53800;DHT22;39708;53.210;6.948;2022-07-06T06:53:22;14.60;99.90
53800;DHT22;39708;53.210;6.948;2022-07-06T06:55:48;14.90;99.90
53800;DHT22;39708;53.210;6.948;2022-07-06T06:58:14;14.50;99.90
53800;DHT22;39708;53.210;6.948;2022-07-06T07:00:39;14.40;99.90
53800;DHT22;39708;53.210;6.948;2022-07-06T07:03:05;14.40;99.90
53800;DHT22;39708;53.210;6.948;2022-07-06T07:05:31;14.60;99.90
53800;DHT22;39708;53.210;6.948;2022-07-06T07:07:56;14.30;99.90
53800;DHT22;39708;53.210;6.948;2022-07-06T07:10:25;14.20;99.90
53800;DHT22;39708;53.210;6.948;2022-07-06T07:12:51;14.20;99.90
53800;DHT22;39708;53.210;6.948;2022-07-06T07:15:17;14.20;99.90
53800;DHT22;39708;53.210;6.948;2022-07-06T07:17:43;14.70;99.90
53800;DHT22;39708;53.210;6.948;2022-07-06T07:20:09;14.20;99.90
53800;DHT22;39708;53.210;6.948;2022-07-06T07:22:34;14.20;99.90
53800;DHT22;39708;53.210;6.948;2022-07-06T07:25:00;14.30;99.90
53800;DHT22;39708;53.210;6.948;2022-07-06T07:27:26;14.40;99.90
53800;DHT22;39708;53.210;6.948;2022-07-06T07:29:52;14.50;99.90
53800;DHT22;39708;53.210;6.948;2022-07-06T07:32:19;14.50;99.90
53800;DHT22;39708;53.210;6.948;2022-07-06T07:34:45;14.70;99.90
53800;DHT22;39708;53.210;6.948;2022-07-06T07:37:11;14.90;99.90
53800;DHT22;39708;53.210;6.948;2022-07-06T07:39:36;14.90;99.90
53800;DHT22;39708;53.210;6.948;2022-07-06T07:42:02;15.10;99.90
53800;DHT22;39708;53.210;6.948;2022-07-06T07:44:28;15.10;99.90
53800;DHT22;39708;53.210;6.948;2022-07-06T07:46:54;15.30;99.90
53800;DHT22;39708;53.210;6.948;2022-07-06T07:49:19;15.60;99.90
53800;DHT22;39708;53.210;6.948;2022-07-06T07:51:47;15.90;99.90
53800;DHT22;39708;53.210;6.948;2022-07-06T07:54:13;16.30;99.90
53800;DHT22;39708;53.210;6.948;2022-07-06T07:56:38;16.40;99.90
53800;DHT22;39708;53.210;6.948;2022-07-06T07:59:07;16.40;99.90
53800;DHT22;39708;53.210;6.948;2022-07-06T08:01:33;16.60;99.90
53800;DHT22;39708;53.210;6.948;2022-07-06T08:03:59;16.60;99.90
53800;DHT22;39708;53.210;6.948;2022-07-06T08:06:25;16.60;99.90
53800;DHT22;39708;53.210;6.948;2022-07-06T08:08:51;16.80;99.90
53800;DHT22;39708;53.210;6.948;2022-07-06T08:11:16;16.90;99.90
53800;DHT22;39708;53.210;6.948;2022-07-06T08:13:42;17.10;99.90
53800;DHT22;39708;53.210;6.948;2022-07-06T08:16:08;17.30;99.90
53800;DHT22;39708;53.210;6.948;2022-07-06T08:18:36;17.40;99.90
53800;DHT22;39708;53.210;6.948;2022-07-06T08:21:02;17.60;99.90
53800;DHT22;39708;53.210;6.948;2022-07-06T08:23:28;17.70;99.90
53800;DHT22;39708;53.210;6.948;2022-07-06T08:25:54;17.50;99.90
53800;DHT22;39708;53.210;6.948;2022-07-06T08:28:19;17.30;99.90
53800;DHT22;39708;53.210;6.948;2022-07-06T08:30:45;17.10;99.90
53800;DHT22;39708;53.210;6.948;2022-07-06T08:33:11;17.00;99.90
53800;DHT22;39708;53.210;6.948;2022-07-06T08:35:36;17.30;99.90
53800;DHT22;39708;53.210;6.948;2022-07-06T08:38:02;17.30;99.90
53800;DHT22;39708;53.210;6.948;2022-07-06T08:40:33;17.40;99.90
53800;DHT22;39708;53.210;6.948;2022-07-06T08:43:00;17.50;99.90
53800;DHT22;39708;53.210;6.948;2022-07-06T08:45:26;17.60;99.90
53800;DHT22;39708;53.210;6.948;2022-07-06T08:47:54;17.40;99.90
53800;DHT22;39708;53.210;6.948;2022-07-06T08:50:20;17.60;99.90
53800;DHT22;39708;53.210;6.948;2022-07-06T08:52:47;17.60;99.90
53800;DHT22;39708;53.210;6.948;2022-07-06T08:55:14;17.90;99.90
53800;DHT22;39708;53.210;6.948;2022-07-06T08:57:41;18.30;99.90
53800;DHT22;39708;53.210;6.948;2022-07-06T09:00:08;18.30;99.90
53800;DHT22;39708;53.210;6.948;2022-07-06T09:02:34;18.60;99.90
53800;DHT22;39708;53.210;6.948;2022-07-06T09:05:02;18.90;99.90
53800;DHT22;39708;53.210;6.948;2022-07-06T09:07:29;18.70;99.90
53800;DHT22;39708;53.210;6.948;2022-07-06T09:09:55;18.70;99.90
53800;DHT22;39708;53.210;6.948;2022-07-06T09:12:21;18.80;99.90
53800;DHT22;39708;53.210;6.948;2022-07-06T09:14:47;18.70;99.90
53800;DHT22;39708;53.210;6.948;2022-07-06T09:17:13;18.50;99.90
53800;DHT22;39708;53.210;6.948;2022-07-06T09:19:39;18.70;99.90
53800;DHT22;39708;53.210;6.948;2022-07-06T09:22:05;18.70;99.90
53800;DHT22;39708;53.210;6.948;2022-07-06T09:24:31;18.90;99.90
53800;DHT22;39708;53.210;6.948;2022-07-06T09:26:57;18.90;99.90
53800;DHT22;39708;53.210;6.948;2022-07-06T09:29:31;18.80;99.90
53800;DHT22;39708;53.210;6.948;2022-07-06T09:32:01;18.90;99.90
53800;DHT22;39708;53.210;6.948;2022-07-06T09:34:41;19.00;99.90
53800;DHT22;39708;53.210;6.948;2022-07-06T09:37:08;19.20;99.90
53800;DHT22;39708;53.210;6.948;2022-07-06T09:39:34;19.10;99.90
53800;DHT22;39708;53.210;6.948;2022-07-06T09:42:01;19.30;99.90
53800;DHT22;39708;53.210;6.948;2022-07-06T09:44:29;19.40;99.90
53800;DHT22;39708;53.210;6.948;2022-07-06T09:46:56;19.50;99.90
53800;DHT22;39708;53.210;6.948;2022-07-06T09:49:24;19.70;99.90
53800;DHT22;39708;53.210;6.948;2022-07-06T09:51:52;19.70;99.90
53800;DHT22;39708;53.210;6.948;2022-07-06T09:54:18;20.00;99.90
53800;DHT22;39708;53.210;6.948;2022-07-06T09:56:45;20.20;99.90
53800;DHT22;39708;53.210;6.948;2022-07-06T09:59:20;20.30;99.90
53800;DHT22;39708;53.210;6.948;2022-07-06T10:01:54;20.40;99.70
53800;DHT22;39708;53.210;6.948;2022-07-06T10:04:20;20.30;99.90
53800;DHT22;39708;53.210;6.948;2022-07-06T10:06:46;20.30;99.30
53800;DHT22;39708;53.210;6.948;2022-07-06T10:09:13;20.00;99.90
53800;DHT22;39708;53.210;6.948;2022-07-06T10:11:41;20.00;99.80
53800;DHT22;39708;53.210;6.948;2022-07-06T10:14:07;20.20;99.90
53800;DHT22;39708;53.210;6.948;2022-07-06T10:16:36;20.30;99.90
53800;DHT22;39708;53.210;6.948;2022-07-06T10:19:07;19.80;98.90
53800;DHT22;39708;53.210;6.948;2022-07-06T10:21:38;19.60;99.90
53800;DHT22;39708;53.210;6.948;2022-07-06T10:24:06;19.30;99.90
53800;DHT22;39708;53.210;6.948;2022-07-06T10:26:35;19.30;99.90
53800;DHT22;39708;53.210;6.948;2022-07-06T10:29:05;19.30;99.90
53800;DHT22;39708;53.210;6.948;2022-07-06T10:31:33;19.40;99.90
53800;DHT22;39708;53.210;6.948;2022-07-06T10:34:01;19.20;99.90
53800;DHT22;39708;53.210;6.948;2022-07-06T10:36:28;19.30;99.90
53800;DHT22;39708;53.210;6.948;2022-07-06T10:38:54;19.50;99.90
53800;DHT22;39708;53.210;6.948;2022-07-06T10:41:33;19.70;99.90
53800;DHT22;39708;53.210;6.948;2022-07-06T10:44:21;19.80;99.90
53800;DHT22;39708;53.210;6.948;2022-07-06T10:47:05;19.50;99.90
53800;DHT22;39708;53.210;6.948;2022-07-06T10:49:31;19.50;99.90
53800;DHT22;39708;53.210;6.948;2022-07-06T10:51:56;19.50;99.90
53800;DHT22;39708;53.210;6.948;2022-07-06T10:54:23;19.60;99.90
53800;DHT22;39708;53.210;6.948;2022-07-06T10:56:50;19.80;99.90
53800;DHT22;39708;53.210;6.948;2022-07-06T11:02:11;20.10;99.90
53800;DHT22;39708;53.210;6.948;2022-07-06T11:04:38;20.00;99.90
53800;DHT22;39708;53.210;6.948;2022-07-06T11:07:08;19.90;99.90
53800;DHT22;39708;53.210;6.948;2022-07-06T11:09:35;20.10;99.90
53800;DHT22;39708;53.210;6.948;2022-07-06T11:12:13;20.00;99.90
53800;DHT22;39708;53.210;6.948;2022-07-06T11:14:39;19.90;99.90
53800;DHT22;39708;53.210;6.948;2022-07-06T11:17:09;19.80;99.90
53800;DHT22;39708;53.210;6.948;2022-07-06T11:19:35;20.00;99.90
53800;DHT22;39708;53.210;6.948;2022-07-06T11:22:09;20.10;99.90
53800;DHT22;39708;53.210;6.948;2022-07-06T11:24:37;20.30;99.90
53800;DHT22;39708;53.210;6.948;2022-07-06T11:27:04;20.30;98.50
53800;DHT22;39708;53.210;6.948;2022-07-06T11:29:30;20.30;99.90
53800;DHT22;39708;53.210;6.948;2022-07-06T11:31:58;20.20;99.90
53800;DHT22;39708;53.210;6.948;2022-07-06T11:34:30;19.90;99.10
53800;DHT22;39708;53.210;6.948;2022-07-06T11:39:32;20.10;99.90
53800;DHT22;39708;53.210;6.948;2022-07-06T11:41:59;20.20;99.90
53800;DHT22;39708;53.210;6.948;2022-07-06T11:44:26;20.50;99.90
53800;DHT22;39708;53.210;6.948;2022-07-06T11:46:54;20.80;99.90
53800;DHT22;39708;53.210;6.948;2022-07-06T11:49:22;20.70;99.20
53800;DHT22;39708;53.210;6.948;2022-07-06T11:51:47;20.40;97.80
53800;DHT22;39708;53.210;6.948;2022-07-06T11:54:15;20.00;98.00
53800;DHT22;39708;53.210;6.948;2022-07-06T11:56:55;20.00;99.90
53800;DHT22;39708;53.210;6.948;2022-07-06T11:59:24;20.00;99.90
53800;DHT22;39708;53.210;6.948;2022-07-06T12:01:57;20.00;99.90
53800;DHT22;39708;53.210;6.948;2022-07-06T12:04:24;20.40;99.90
53800;DHT22;39708;53.210;6.948;2022-07-06T12:06:50;20.80;99.90
53800;DHT22;39708;53.210;6.948;2022-07-06T12:09:15;21.00;99.90
53800;DHT22;39708;53.210;6.948;2022-07-06T12:11:44;21.10;99.90
53800;DHT22;39708;53.210;6.948;2022-07-06T12:14:19;21.30;99.90
53800;DHT22;39708;53.210;6.948;2022-07-06T12:16:47;20.90;99.30
53800;DHT22;39708;53.210;6.948;2022-07-06T12:19:14;20.60;98.00
53800;DHT22;39708;53.210;6.948;2022-07-06T12:21:47;20.50;99.90
53800;DHT22;39708;53.210;6.948;2022-07-06T12:24:18;20.30;99.90
53800;DHT22;39708;53.210;6.948;2022-07-06T12:26:44;20.20;99.90
53800;DHT22;39708;53.210;6.948;2022-07-06T12:29:12;20.40;99.90
53800;DHT22;39708;53.210;6.948;2022-07-06T12:31:54;20.70;99.90
53800;DHT22;39708;53.210;6.948;2022-07-06T12:34:25;20.80;99.90
53800;DHT22;39708;53.210;6.948;2022-07-06T12:36:57;20.90;99.90
53800;DHT22;39708;53.210;6.948;2022-07-06T12:39:25;20.90;99.80
53800;DHT22;39708;53.210;6.948;2022-07-06T12:41:54;20.80;98.40
53800;DHT22;39708;53.210;6.948;2022-07-06T12:44:23;20.70;98.00
53800;DHT22;39708;53.210;6.948;2022-07-06T12:46:50;20.70;99.90
53800;DHT22;39708;53.210;6.948;2022-07-06T12:49:17;20.60;98.60
53800;DHT22;39708;53.210;6.948;2022-07-06T12:51:54;20.70;99.40
53800;DHT22;39708;53.210;6.948;2022-07-06T12:54:21;20.80;99.50
53800;DHT22;39708;53.210;6.948;2022-07-06T12:57:12;20.90;99.00
53800;DHT22;39708;53.210;6.948;2022-07-06T12:59:46;20.80;97.80
53800;DHT22;39708;53.210;6.948;2022-07-06T13:02:31;20.80;99.30
53800;DHT22;39708;53.210;6.948;2022-07-06T13:04:58;20.80;99.30
53800;DHT22;39708;53.210;6.948;2022-07-06T13:07:25;20.80;98.90
53800;DHT22;39708;53.210;6.948;2022-07-06T13:09:52;20.70;98.30
53800;DHT22;39708;53.210;6.948;2022-07-06T13:12:18;20.90;97.50
53800;DHT22;39708;53.210;6.948;2022-07-06T13:14:44;20.40;97.70
53800;DHT22;39708;53.210;6.948;2022-07-06T13:17:09;20.00;99.30
53800;DHT22;39708;53.210;6.948;2022-07-06T13:19:35;19.60;99.10
53800;DHT22;39708;53.210;6.948;2022-07-06T13:22:01;19.10;99.90
53800;DHT22;39708;53.210;6.948;2022-07-06T13:24:26;18.90;99.90
53800;DHT22;39708;53.210;6.948;2022-07-06T13:26:54;18.90;99.90
53800;DHT22;39708;53.210;6.948;2022-07-06T13:29:20;18.30;99.90
53800;DHT22;39708;53.210;6.948;2022-07-06T13:31:46;18.40;99.90
53800;DHT22;39708;53.210;6.948;2022-07-06T13:34:11;18.10;99.90
53800;DHT22;39708;53.210;6.948;2022-07-06T13:36:39;18.10;99.90
53800;DHT22;39708;53.210;6.948;2022-07-06T13:39:05;18.00;99.90
53800;DHT22;39708;53.210;6.948;2022-07-06T13:41:32;18.00;99.90
53800;DHT22;39708;53.210;6.948;2022-07-06T13:43:57;17.90;99.90
53800;DHT22;39708;53.210;6.948;2022-07-06T13:46:29;17.90;99.90
53800;DHT22;39708;53.210;6.948;2022-07-06T13:48:56;18.20;99.90
53800;DHT22;39708;53.210;6.948;2022-07-06T13:51:25;18.60;99.90
53800;DHT22;39708;53.210;6.948;2022-07-06T13:53:52;18.70;99.90
53800;DHT22;39708;53.210;6.948;2022-07-06T13:56:19;19.00;99.90
53800;DHT22;39708;53.210;6.948;2022-07-06T13:58:44;19.30;99.90
53800;DHT22;39708;53.210;6.948;2022-07-06T14:01:10;19.40;99.90
53800;DHT22;39708;53.210;6.948;2022-07-06T14:03:36;19.50;99.90
53800;DHT22;39708;53.210;6.948;2022-07-06T14:06:04;19.60;99.90
53800;DHT22;39708;53.210;6.948;2022-07-06T14:08:32;19.60;99.90
53800;DHT22;39708;53.210;6.948;2022-07-06T14:10:58;19.60;99.90
53800;DHT22;39708;53.210;6.948;2022-07-06T14:13:24;19.50;99.90
53800;DHT22;39708;53.210;6.948;2022-07-06T14:15:50;19.30;99.90
53800;DHT22;39708;53.210;6.948;2022-07-06T14:18:16;19.30;99.90
53800;DHT22;39708;53.210;6.948;2022-07-06T14:20:44;19.20;99.80
53800;DHT22;39708;53.210;6.948;2022-07-06T14:23:10;19.00;99.90
53800;DHT22;39708;53.210;6.948;2022-07-06T14:25:37;19.10;99.90
53800;DHT22;39708;53.210;6.948;2022-07-06T14:28:03;19.00;99.90
53800;DHT22;39708;53.210;6.948;2022-07-06T14:30:29;19.00;99.90
53800;DHT22;39708;53.210;6.948;2022-07-06T14:32:55;18.90;99.90
53800;DHT22;39708;53.210;6.948;2022-07-06T14:35:21;18.90;99.90
53800;DHT22;39708;53.210;6.948;2022-07-06T14:37:47;19.00;99.90
53800;DHT22;39708;53.210;6.948;2022-07-06T14:40:13;18.80;99.90
53800;DHT22;39708;53.210;6.948;2022-07-06T14:42:38;18.80;99.90
53800;DHT22;39708;53.210;6.948;2022-07-06T14:45:04;18.70;99.90
53800;DHT22;39708;53.210;6.948;2022-07-06T14:47:30;18.80;99.90
53800;DHT22;39708;53.210;6.948;2022-07-06T14:49:56;18.80;99.90
53800;DHT22;39708;53.210;6.948;2022-07-06T14:52:21;18.60;99.90
53800;DHT22;39708;53.210;6.948;2022-07-06T14:54:47;18.70;99.90
53800;DHT22;39708;53.210;6.948;2022-07-06T14:57:13;18.50;99.90
53800;DHT22;39708;53.210;6.948;2022-07-06T14:59:38;18.50;99.90
53800;DHT22;39708;53.210;6.948;2022-07-06T15:02:04;18.40;99.90
53800;DHT22;39708;53.210;6.948;2022-07-06T15:04:30;18.40;99.90
53800;DHT22;39708;53.210;6.948;2022-07-06T15:06:55;18.50;99.90
53800;DHT22;39708;53.210;6.948;2022-07-06T15:09:21;18.40;99.90
53800;DHT22;39708;53.210;6.948;2022-07-06T15:11:47;18.40;99.90
53800;DHT22;39708;53.210;6.948;2022-07-06T15:14:12;18.60;99.90
53800;DHT22;39708;53.210;6.948;2022-07-06T15:16:41;18.40;99.90
53800;DHT22;39708;53.210;6.948;2022-07-06T15:19:06;18.30;99.90
53800;DHT22;39708;53.210;6.948;2022-07-06T15:21:33;18.20;99.90
53800;DHT22;39708;53.210;6.948;2022-07-06T15:23:59;18.20;99.90
53800;DHT22;39708;53.210;6.948;2022-07-06T15:26:24;18.10;99.90
53800;DHT22;39708;53.210;6.948;2022-07-06T15:28:51;18.20;99.90
53800;DHT22;39708;53.210;6.948;2022-07-06T15:31:16;18.20;99.90
53800;DHT22;39708;53.210;6.948;2022-07-06T15:33:42;18.00;99.90